sensor_id;sensor_type;location;lat;lon;timestamp;P1;durP1;ratioP1;P2;durP2;ratioP2
66189;SDS011;52992;52.084;5.412;2023-02-13T00:00:19;30.80;;;13.97;;
66189;SDS011;52992;52.084;5.412;2023-02-13T00:02:49;30.73;;;13.33;;
66189;SDS011;52992;52.084;5.412;2023-02-13T00:05:16;25.70;;;12.60;;
66189;SDS011;52992;52.084;5.412;2023-02-13T00:07:43;27.87;;;12.93;;
66189;SDS011;52992;52.084;5.412;2023-02-13T00:10:10;30.53;;;13.30;;
66189;SDS011;52992;52.084;5.412;2023-02-13T00:12:37;30.40;;;13.33;;
66189;SDS011;52992;52.084;5.412;2023-02-13T00:15:04;25.07;;;12.83;;
66189;SDS011;52992;52.084;5.412;2023-02-13T00:17:31;28.93;;;12.67;;
66189;SDS011;52992;52.084;5.412;2023-02-13T00:19:57;25.53;;;12.20;;
66189;SDS011;52992;52.084;5.412;2023-02-13T00:22:24;29.53;;;12.57;;
66189;SDS011;52992;52.084;5.412;2023-02-13T00:24:51;30.00;;;13.37;;
66189;SDS011;52992;52.084;5.412;2023-02-13T00:27:18;29.53;;;13.17;;
66189;SDS011;52992;52.084;5.412;2023-02-13T00:29:45;29.57;;;13.00;;
66189;SDS011;52992;52.084;5.412;2023-02-13T00:32:12;22.47;;;11.27;;
66189;SDS011;52992;52.084;5.412;2023-02-13T00:34:40;26.27;;;13.13;;
66189;SDS011;52992;52.084;5.412;2023-02-13T00:37:06;25.77;;;12.27;;
66189;SDS011;52992;52.084;5.412;2023-02-13T00:39:33;26.30;;;12.43;;
66189;SDS011;52992;52.084;5.412;2023-02-13T00:42:00;28.50;;;11.43;;
66189;SDS011;52992;52.084;5.412;2023-02-13T00:44:27;27.37;;;11.60;;
66189;SDS011;52992;52.084;5.412;2023-02-13T00:46:54;23.00;;;11.47;;
66189;SDS011;52992;52.084;5.412;2023-02-13T00:49:22;26.93;;;11.83;;
66189;SDS011;52992;52.084;5.412;2023-02-13T00:51:49;25.03;;;12.10;;
66189;SDS011;52992;52.084;5.412;2023-02-13T00:54:16;25.97;;;11.67;;
66189;SDS011;52992;52.084;5.412;2023-02-13T00:56:43;24.13;;;11.83;;
66189;SDS011;52992;52.084;5.412;2023-02-13T00:59:11;26.67;;;11.57;;
66189;SDS011;52992;52.084;5.412;2023-02-13T01:01:38;24.87;;;11.73;;
66189;SDS011;52992;52.084;5.412;2023-02-13T01:04:05;27.07;;;11.27;;
66189;SDS011;52992;52.084;5.412;2023-02-13T01:06:32;26.40;;;11.90;;
66189;SDS011;52992;52.084;5.412;2023-02-13T01:08:59;27.27;;;12.00;;
66189;SDS011;52992;52.084;5.412;2023-02-13T01:11:26;27.50;;;12.03;;
66189;SDS011;52992;52.084;5.412;2023-02-13T01:13:52;30.47;;;11.60;;
66189;SDS011;52992;52.084;5.412;2023-02-13T01:16:19;25.57;;;11.47;;
66189;SDS011;52992;52.084;5.412;2023-02-13T01:18:46;26.17;;;10.73;;
66189;SDS011;52992;52.084;5.412;2023-02-13T01:21:17;25.83;;;11.33;;
66189;SDS011;52992;52.084;5.412;2023-02-13T01:23:45;24.27;;;11.60;;
66189;SDS011;52992;52.084;5.412;2023-02-13T01:26:15;27.13;;;11.63;;
66189;SDS011;52992;52.084;5.412;2023-02-13T01:28:44;24.23;;;10.83;;
66189;SDS011;52992;52.084;5.412;2023-02-13T01:31:11;24.70;;;11.67;;
66189;SDS011;52992;52.084;5.412;2023-02-13T01:33:38;23.77;;;11.70;;
66189;SDS011;52992;52.084;5.412;2023-02-13T01:36:06;26.40;;;11.60;;
66189;SDS011;52992;52.084;5.412;2023-02-13T01:38:37;24.83;;;11.00;;
66189;SDS011;52992;52.084;5.412;2023-02-13T01:41:03;21.23;;;10.77;;
66189;SDS011;52992;52.084;5.412;2023-02-13T01:43:44;25.87;;;11.27;;
66189;SDS011;52992;52.084;5.412;2023-02-13T01:46:15;24.40;;;11.30;;
66189;SDS011;52992;52.084;5.412;2023-02-13T01:48:46;27.67;;;11.83;;
66189;SDS011;52992;52.084;5.412;2023-02-13T01:51:16;24.43;;;10.27;;
66189;SDS011;52992;52.084;5.412;2023-02-13T01:56:27;26.80;;;11.63;;
66189;SDS011;52992;52.084;5.412;2023-02-13T01:58:59;23.53;;;11.40;;
66189;SDS011;52992;52.084;5.412;2023-02-13T02:01:30;25.37;;;11.07;;
66189;SDS011;52992;52.084;5.412;2023-02-13T02:03:59;25.80;;;11.07;;
66189;SDS011;52992;52.084;5.412;2023-02-13T02:06:43;27.47;;;11.37;;
66189;SDS011;52992;52.084;5.412;2023-02-13T02:09:26;24.77;;;10.57;;
66189;SDS011;52992;52.084;5.412;2023-02-13T02:14:28;24.00;;;11.60;;
66189;SDS011;52992;52.084;5.412;2023-02-13T02:16:55;23.70;;;10.97;;
66189;SDS011;52992;52.084;5.412;2023-02-13T02:24:56;22.47;;;10.43;;
66189;SDS011;52992;52.084;5.412;2023-02-13T02:33:36;27.33;;;12.50;;
66189;SDS011;52992;52.084;5.412;2023-02-13T02:39:11;26.00;;;11.93;;
66189;SDS011;52992;52.084;5.412;2023-02-13T02:44:49;27.57;;;11.80;;
66189;SDS011;52992;52.084;5.412;2023-02-13T02:47:34;23.33;;;12.23;;
66189;SDS011;52992;52.084;5.412;2023-02-13T02:50:36;20.93;;;10.40;;
66189;SDS011;52992;52.084;5.412;2023-02-13T02:58:25;23.83;;;11.17;;
66189;SDS011;52992;52.084;5.412;2023-02-13T03:01:24;24.50;;;10.57;;
66189;SDS011;52992;52.084;5.412;2023-02-13T03:04:23;25.43;;;11.33;;
66189;SDS011;52992;52.084;5.412;2023-02-13T03:07:18;23.07;;;10.33;;
66189;SDS011;52992;52.084;5.412;2023-02-13T03:09:52;20.70;;;10.47;;
66189;SDS011;52992;52.084;5.412;2023-02-13T03:12:45;23.00;;;10.97;;
66189;SDS011;52992;52.084;5.412;2023-02-13T03:15:35;26.07;;;10.77;;
66189;SDS011;52992;52.084;5.412;2023-02-13T03:18:27;27.70;;;11.70;;
66189;SDS011;52992;52.084;5.412;2023-02-13T03:21:33;23.37;;;11.43;;
66189;SDS011;52992;52.084;5.412;2023-02-13T03:35:18;25.13;;;12.23;;
66189;SDS011;52992;52.084;5.412;2023-02-13T03:38:21;29.20;;;12.17;;
66189;SDS011;52992;52.084;5.412;2023-02-13T03:41:16;26.60;;;12.03;;
66189;SDS011;52992;52.084;5.412;2023-02-13T03:46:23;25.90;;;11.17;;
66189;SDS011;52992;52.084;5.412;2023-02-13T03:48:52;31.20;;;11.90;;
66189;SDS011;52992;52.084;5.412;2023-02-13T03:51:41;26.17;;;11.37;;
66189;SDS011;52992;52.084;5.412;2023-02-13T03:54:16;23.47;;;10.47;;
66189;SDS011;52992;52.084;5.412;2023-02-13T03:56:48;24.70;;;10.70;;
66189;SDS011;52992;52.084;5.412;2023-02-13T03:59:36;27.87;;;12.43;;
66189;SDS011;52992;52.084;5.412;2023-02-13T04:04:52;25.60;;;11.70;;
66189;SDS011;52992;52.084;5.412;2023-02-13T04:07:25;28.33;;;11.50;;
66189;SDS011;52992;52.084;5.412;2023-02-13T04:09:59;26.37;;;11.50;;
66189;SDS011;52992;52.084;5.412;2023-02-13T04:12:42;27.63;;;11.30;;
66189;SDS011;52992;52.084;5.412;2023-02-13T04:15:44;27.33;;;11.60;;
66189;SDS011;52992;52.084;5.412;2023-02-13T04:20:44;24.37;;;10.83;;
66189;SDS011;52992;52.084;5.412;2023-02-13T04:23:11;27.43;;;11.90;;
66189;SDS011;52992;52.084;5.412;2023-02-13T04:25:39;21.67;;;10.23;;
66189;SDS011;52992;52.084;5.412;2023-02-13T04:28:11;25.47;;;11.53;;
66189;SDS011;52992;52.084;5.412;2023-02-13T04:30:38;24.97;;;10.93;;
66189;SDS011;52992;52.084;5.412;2023-02-13T04:33:05;25.60;;;12.10;;
66189;SDS011;52992;52.084;5.412;2023-02-13T04:35:32;24.47;;;11.37;;
66189;SDS011;52992;52.084;5.412;2023-02-13T04:37:58;26.47;;;10.37;;
66189;SDS011;52992;52.084;5.412;2023-02-13T04:40:25;22.80;;;10.83;;
66189;SDS011;52992;52.084;5.412;2023-02-13T04:42:52;27.30;;;11.53;;
66189;SDS011;52992;52.084;5.412;2023-02-13T04:45:19;22.53;;;11.10;;
66189;SDS011;52992;52.084;5.412;2023-02-13T04:47:52;26.23;;;11.50;;
66189;SDS011;52992;52.084;5.412;2023-02-13T04:50:20;24.30;;;10.63;;
66189;SDS011;52992;52.084;5.412;2023-02-13T04:52:49;29.33;;;12.23;;
66189;SDS011;52992;52.084;5.412;2023-02-13T04:55:22;25.63;;;10.93;;
66189;SDS011;52992;52.084;5.412;2023-02-13T04:57:51;26.70;;;11.80;;
66189;SDS011;52992;52.084;5.412;2023-02-13T05:00:19;29.17;;;12.00;;
66189;SDS011;52992;52.084;5.412;2023-02-13T05:02:47;22.53;;;10.87;;
66189;SDS011;52992;52.084;5.412;2023-02-13T05:05:14;26.77;;;11.40;;
66189;SDS011;52992;52.084;5.412;2023-02-13T05:07:41;27.83;;;12.70;;
66189;SDS011;52992;52.084;5.412;2023-02-13T05:10:08;29.63;;;11.57;;
66189;SDS011;52992;52.084;5.412;2023-02-13T05:12:36;26.43;;;11.53;;
66189;SDS011;52992;52.084;5.412;2023-02-13T05:15:04;26.13;;;12.30;;
66189;SDS011;52992;52.084;5.412;2023-02-13T05:17:31;24.47;;;11.53;;
66189;SDS011;52992;52.084;5.412;2023-02-13T05:19:58;25.50;;;11.63;;
66189;SDS011;52992;52.084;5.412;2023-02-13T05:22:25;31.50;;;12.63;;
66189;SDS011;52992;52.084;5.412;2023-02-13T05:25:10;25.67;;;12.13;;
66189;SDS011;52992;52.084;5.412;2023-02-13T05:27:37;28.53;;;11.73;;
66189;SDS011;52992;52.084;5.412;2023-02-13T05:30:04;24.60;;;11.57;;
66189;SDS011;52992;52.084;5.412;2023-02-13T05:32:31;26.13;;;11.77;;
66189;SDS011;52992;52.084;5.412;2023-02-13T05:34:58;28.57;;;11.70;;
66189;SDS011;52992;52.084;5.412;2023-02-13T05:37:25;33.63;;;13.23;;
66189;SDS011;52992;52.084;5.412;2023-02-13T05:39:51;31.40;;;11.83;;
66189;SDS011;52992;52.084;5.412;2023-02-13T05:42:18;29.63;;;12.37;;
66189;SDS011;52992;52.084;5.412;2023-02-13T05:44:45;26.50;;;12.77;;
66189;SDS011;52992;52.084;5.412;2023-02-13T05:47:12;31.23;;;12.50;;
66189;SDS011;52992;52.084;5.412;2023-02-13T05:49:38;28.60;;;11.97;;
66189;SDS011;52992;52.084;5.412;2023-02-13T05:52:05;30.10;;;12.90;;
66189;SDS011;52992;52.084;5.412;2023-02-13T05:54:32;31.20;;;12.17;;
66189;SDS011;52992;52.084;5.412;2023-02-13T05:56:59;29.47;;;13.03;;
66189;SDS011;52992;52.084;5.412;2023-02-13T05:59:25;35.97;;;12.73;;
66189;SDS011;52992;52.084;5.412;2023-02-13T06:01:52;30.83;;;14.00;;
66189;SDS011;52992;52.084;5.412;2023-02-13T06:04:19;27.27;;;11.83;;
66189;SDS011;52992;52.084;5.412;2023-02-13T06:06:46;32.30;;;12.77;;
66189;SDS011;52992;52.084;5.412;2023-02-13T06:09:13;28.03;;;12.57;;
66189;SDS011;52992;52.084;5.412;2023-02-13T06:11:40;29.60;;;12.40;;
66189;SDS011;52992;52.084;5.412;2023-02-13T06:14:07;28.70;;;12.10;;
66189;SDS011;52992;52.084;5.412;2023-02-13T06:16:33;29.97;;;12.60;;
66189;SDS011;52992;52.084;5.412;2023-02-13T06:19:00;35.47;;;14.00;;
66189;SDS011;52992;52.084;5.412;2023-02-13T06:21:28;30.80;;;12.07;;
66189;SDS011;52992;52.084;5.412;2023-02-13T06:23:54;32.50;;;14.67;;
66189;SDS011;52992;52.084;5.412;2023-02-13T06:26:21;32.47;;;13.77;;
66189;SDS011;52992;52.084;5.412;2023-02-13T06:28:49;32.27;;;13.47;;
66189;SDS011;52992;52.084;5.412;2023-02-13T06:31:16;34.53;;;14.23;;
66189;SDS011;52992;52.084;5.412;2023-02-13T06:33:43;29.43;;;11.97;;
66189;SDS011;52992;52.084;5.412;2023-02-13T06:36:09;30.50;;;14.17;;
66189;SDS011;52992;52.084;5.412;2023-02-13T06:38:36;30.13;;;13.07;;
66189;SDS011;52992;52.084;5.412;2023-02-13T06:41:03;31.27;;;13.23;;
66189;SDS011;52992;52.084;5.412;2023-02-13T06:43:30;31.63;;;13.97;;
66189;SDS011;52992;52.084;5.412;2023-02-13T06:45:57;25.77;;;12.10;;
66189;SDS011;52992;52.084;5.412;2023-02-13T06:48:24;30.43;;;13.93;;
66189;SDS011;52992;52.084;5.412;2023-02-13T06:50:51;29.47;;;12.60;;
66189;SDS011;52992;52.084;5.412;2023-02-13T06:53:18;33.40;;;13.97;;
66189;SDS011;52992;52.084;5.412;2023-02-13T06:55:50;31.90;;;13.07;;
66189;SDS011;52992;52.084;5.412;2023-02-13T06:58:19;31.93;;;12.83;;
66189;SDS011;52992;52.084;5.412;2023-02-13T07:00:46;30.03;;;13.27;;
66189;SDS011;52992;52.084;5.412;2023-02-13T07:03:13;31.17;;;12.63;;
66189;SDS011;52992;52.084;5.412;2023-02-13T07:05:41;36.00;;;13.17;;
66189;SDS011;52992;52.084;5.412;2023-02-13T07:08:09;30.73;;;12.97;;
66189;SDS011;52992;52.084;5.412;2023-02-13T07:10:40;24.07;;;11.77;;
66189;SDS011;52992;52.084;5.412;2023-02-13T07:13:07;33.23;;;13.87;;
66189;SDS011;52992;52.084;5.412;2023-02-13T07:15:35;32.00;;;13.57;;
66189;SDS011;52992;52.084;5.412;2023-02-13T07:18:03;33.60;;;13.53;;
66189;SDS011;52992;52.084;5.412;2023-02-13T07:20:30;29.47;;;12.37;;
66189;SDS011;52992;52.084;5.412;2023-02-13T07:22:58;29.40;;;12.57;;
66189;SDS011;52992;52.084;5.412;2023-02-13T07:25:26;34.07;;;13.60;;
66189;SDS011;52992;52.084;5.412;2023-02-13T07:27:53;28.73;;;12.90;;
66189;SDS011;52992;52.084;5.412;2023-02-13T07:30:21;34.93;;;14.17;;
66189;SDS011;52992;52.084;5.412;2023-02-13T07:32:47;33.73;;;13.93;;
66189;SDS011;52992;52.084;5.412;2023-02-13T07:35:14;35.67;;;15.60;;
66189;SDS011;52992;52.084;5.412;2023-02-13T07:37:41;35.50;;;15.00;;
66189;SDS011;52992;52.084;5.412;2023-02-13T07:40:08;36.70;;;15.53;;
66189;SDS011;52992;52.084;5.412;2023-02-13T07:42:35;29.83;;;13.77;;
66189;SDS011;52992;52.084;5.412;2023-02-13T07:45:02;32.80;;;14.20;;
66189;SDS011;52992;52.084;5.412;2023-02-13T07:47:32;35.07;;;15.73;;
66189;SDS011;52992;52.084;5.412;2023-02-13T07:50:00;35.47;;;15.50;;
66189;SDS011;52992;52.084;5.412;2023-02-13T07:52:27;36.30;;;15.53;;
66189;SDS011;52992;52.084;5.412;2023-02-13T07:54:54;37.50;;;15.50;;
66189;SDS011;52992;52.084;5.412;2023-02-13T07:57:21;38.33;;;15.63;;
66189;SDS011;52992;52.084;5.412;2023-02-13T07:59:48;37.97;;;15.80;;
66189;SDS011;52992;52.084;5.412;2023-02-13T08:02:15;33.03;;;15.17;;
66189;SDS011;52992;52.084;5.412;2023-02-13T08:04:42;33.40;;;15.80;;
66189;SDS011;52992;52.084;5.412;2023-02-13T08:07:12;32.73;;;15.33;;
66189;SDS011;52992;52.084;5.412;2023-02-13T08:09:42;38.27;;;16.13;;
66189;SDS011;52992;52.084;5.412;2023-02-13T08:12:28;37.73;;;17.17;;
66189;SDS011;52992;52.084;5.412;2023-02-13T08:14:56;36.03;;;17.47;;
66189;SDS011;52992;52.084;5.412;2023-02-13T08:17:23;42.87;;;18.87;;
66189;SDS011;52992;52.084;5.412;2023-02-13T08:19:50;34.13;;;15.90;;
66189;SDS011;52992;52.084;5.412;2023-02-13T08:22:16;33.47;;;16.03;;
66189;SDS011;52992;52.084;5.412;2023-02-13T08:24:43;37.93;;;17.70;;
66189;SDS011;52992;52.084;5.412;2023-02-13T08:27:11;39.37;;;17.40;;
66189;SDS011;52992;52.084;5.412;2023-02-13T08:29:39;40.37;;;17.97;;
66189;SDS011;52992;52.084;5.412;2023-02-13T08:32:06;35.33;;;15.73;;
66189;SDS011;52992;52.084;5.412;2023-02-13T08:34:33;35.67;;;16.27;;
66189;SDS011;52992;52.084;5.412;2023-02-13T08:37:00;36.13;;;16.00;;
66189;SDS011;52992;52.084;5.412;2023-02-13T08:39:27;34.33;;;14.93;;
66189;SDS011;52992;52.084;5.412;2023-02-13T08:41:54;35.60;;;15.77;;
66189;SDS011;52992;52.084;5.412;2023-02-13T08:44:21;35.93;;;16.27;;
66189;SDS011;52992;52.084;5.412;2023-02-13T08:46:48;35.80;;;15.73;;
66189;SDS011;52992;52.084;5.412;2023-02-13T08:49:15;33.87;;;16.10;;
66189;SDS011;52992;52.084;5.412;2023-02-13T08:51:41;30.90;;;15.93;;
66189;SDS011;52992;52.084;5.412;2023-02-13T08:54:08;29.63;;;15.27;;
66189;SDS011;52992;52.084;5.412;2023-02-13T08:56:35;35.30;;;15.53;;
66189;SDS011;52992;52.084;5.412;2023-02-13T08:59:02;30.83;;;14.67;;
66189;SDS011;52992;52.084;5.412;2023-02-13T09:01:29;27.77;;;14.10;;
66189;SDS011;52992;52.084;5.412;2023-02-13T09:03:55;35.00;;;15.53;;
66189;SDS011;52992;52.084;5.412;2023-02-13T09:06:22;27.67;;;13.97;;
66189;SDS011;52992;52.084;5.412;2023-02-13T09:08:51;27.63;;;14.30;;
66189;SDS011;52992;52.084;5.412;2023-02-13T09:11:18;28.10;;;13.27;;
66189;SDS011;52992;52.084;5.412;2023-02-13T09:13:48;29.47;;;13.23;;
66189;SDS011;52992;52.084;5.412;2023-02-13T09:16:18;30.13;;;13.47;;
66189;SDS011;52992;52.084;5.412;2023-02-13T09:18:46;27.73;;;13.53;;
66189;SDS011;52992;52.084;5.412;2023-02-13T09:21:14;27.63;;;13.57;;
66189;SDS011;52992;52.084;5.412;2023-02-13T09:23:41;27.80;;;13.63;;
66189;SDS011;52992;52.084;5.412;2023-02-13T09:26:09;27.63;;;12.67;;
66189;SDS011;52992;52.084;5.412;2023-02-13T09:28:38;29.40;;;13.10;;
66189;SDS011;52992;52.084;5.412;2023-02-13T09:33:36;26.87;;;12.13;;
66189;SDS011;52992;52.084;5.412;2023-02-13T09:36:07;26.17;;;12.80;;
66189;SDS011;52992;52.084;5.412;2023-02-13T09:38:36;28.23;;;13.50;;
66189;SDS011;52992;52.084;5.412;2023-02-13T09:41:04;25.87;;;11.97;;
66189;SDS011;52992;52.084;5.412;2023-02-13T09:49:28;27.03;;;13.10;;
66189;SDS011;52992;52.084;5.412;2023-02-13T09:51:55;25.17;;;12.50;;
66189;SDS011;52992;52.084;5.412;2023-02-13T09:54:23;25.67;;;13.27;;
66189;SDS011;52992;52.084;5.412;2023-02-13T09:56:59;25.67;;;12.40;;
66189;SDS011;52992;52.084;5.412;2023-02-13T09:59:33;24.93;;;12.80;;
66189;SDS011;52992;52.084;5.412;2023-02-13T10:02:21;26.17;;;13.30;;
66189;SDS011;52992;52.084;5.412;2023-02-13T10:05:16;26.90;;;13.40;;
66189;SDS011;52992;52.084;5.412;2023-02-13T10:16:18;22.83;;;11.57;;
66189;SDS011;52992;52.084;5.412;2023-02-13T10:18:54;24.80;;;12.57;;
66189;SDS011;52992;52.084;5.412;2023-02-13T10:21:29;25.53;;;12.60;;
66189;SDS011;52992;52.084;5.412;2023-02-13T10:24:05;23.47;;;12.07;;
66189;SDS011;52992;52.084;5.412;2023-02-13T10:26:38;30.47;;;13.17;;
66189;SDS011;52992;52.084;5.412;2023-02-13T10:29:20;24.30;;;12.73;;
66189;SDS011;52992;52.084;5.412;2023-02-13T10:32:09;24.60;;;13.00;;
66189;SDS011;52992;52.084;5.412;2023-02-13T10:34:41;24.53;;;12.50;;
66189;SDS011;52992;52.084;5.412;2023-02-13T10:37:14;21.90;;;11.63;;
66189;SDS011;52992;52.084;5.412;2023-02-13T10:39:44;26.33;;;12.70;;
66189;SDS011;52992;52.084;5.412;2023-02-13T10:42:20;24.57;;;13.00;;
66189;SDS011;52992;52.084;5.412;2023-02-13T10:50:11;28.13;;;12.27;;
66189;SDS011;52992;52.084;5.412;2023-02-13T10:55:55;26.07;;;13.40;;
66189;SDS011;52992;52.084;5.412;2023-02-13T11:04:03;24.33;;;12.90;;
66189;SDS011;52992;52.084;5.412;2023-02-13T11:06:37;24.33;;;13.70;;
66189;SDS011;52992;52.084;5.412;2023-02-13T11:09:08;26.73;;;12.67;;
66189;SDS011;52992;52.084;5.412;2023-02-13T11:11:39;29.37;;;13.33;;
66189;SDS011;52992;52.084;5.412;2023-02-13T11:14:09;25.43;;;12.37;;
66189;SDS011;52992;52.084;5.412;2023-02-13T11:16:40;25.27;;;13.03;;
66189;SDS011;52992;52.084;5.412;2023-02-13T11:19:17;24.20;;;12.83;;
66189;SDS011;52992;52.084;5.412;2023-02-13T11:21:56;24.27;;;11.43;;
66189;SDS011;52992;52.084;5.412;2023-02-13T11:24:26;23.23;;;13.40;;
66189;SDS011;52992;52.084;5.412;2023-02-13T11:26:59;26.70;;;12.40;;
66189;SDS011;52992;52.084;5.412;2023-02-13T11:29:31;23.77;;;11.47;;
66189;SDS011;52992;52.084;5.412;2023-02-13T11:32:08;23.73;;;12.53;;
66189;SDS011;52992;52.084;5.412;2023-02-13T11:34:44;26.63;;;12.53;;
66189;SDS011;52992;52.084;5.412;2023-02-13T11:37:14;25.20;;;12.20;;
66189;SDS011;52992;52.084;5.412;2023-02-13T11:39:47;24.43;;;12.17;;
66189;SDS011;52992;52.084;5.412;2023-02-13T11:42:19;27.90;;;13.03;;
66189;SDS011;52992;52.084;5.412;2023-02-13T11:44:53;24.00;;;12.57;;
66189;SDS011;52992;52.084;5.412;2023-02-13T11:47:34;28.90;;;13.00;;
66189;SDS011;52992;52.084;5.412;2023-02-13T11:50:05;22.37;;;12.47;;
66189;SDS011;52992;52.084;5.412;2023-02-13T11:53:07;24.17;;;12.20;;
66189;SDS011;52992;52.084;5.412;2023-02-13T11:55:35;24.70;;;12.40;;
66189;SDS011;52992;52.084;5.412;2023-02-13T12:00:37;25.20;;;12.60;;
66189;SDS011;52992;52.084;5.412;2023-02-13T12:08:29;22.23;;;12.07;;
66189;SDS011;52992;52.084;5.412;2023-02-13T12:10:57;26.97;;;12.77;;
66189;SDS011;52992;52.084;5.412;2023-02-13T12:13:28;24.07;;;11.93;;
66189;SDS011;52992;52.084;5.412;2023-02-13T12:16:01;23.07;;;11.73;;
66189;SDS011;52992;52.084;5.412;2023-02-13T12:18:33;27.23;;;12.07;;
66189;SDS011;52992;52.084;5.412;2023-02-13T12:21:22;29.00;;;13.07;;
66189;SDS011;52992;52.084;5.412;2023-02-13T12:23:54;21.47;;;11.90;;
66189;SDS011;52992;52.084;5.412;2023-02-13T12:38:10;26.60;;;12.17;;
66189;SDS011;52992;52.084;5.412;2023-02-13T12:47:30;20.57;;;10.33;;
66189;SDS011;52992;52.084;5.412;2023-02-13T12:59:24;23.20;;;11.40;;
66189;SDS011;52992;52.084;5.412;2023-02-13T13:02:17;22.93;;;11.47;;
66189;SDS011;52992;52.084;5.412;2023-02-13T13:05:23;21.23;;;11.03;;
66189;SDS011;52992;52.084;5.412;2023-02-13T13:13:32;19.93;;;10.93;;
66189;SDS011;52992;52.084;5.412;2023-02-13T13:24:12;22.73;;;11.27;;
66189;SDS011;52992;52.084;5.412;2023-02-13T13:26:55;23.10;;;12.37;;
66189;SDS011;52992;52.084;5.412;2023-02-13T13:29:24;21.17;;;11.57;;
66189;SDS011;52992;52.084;5.412;2023-02-13T13:31:55;21.40;;;10.70;;
66189;SDS011;52992;52.084;5.412;2023-02-13T13:34:33;21.67;;;12.40;;
66189;SDS011;52992;52.084;5.412;2023-02-13T13:37:08;20.97;;;10.40;;
66189;SDS011;52992;52.084;5.412;2023-02-13T13:43:02;16.90;;;10.03;;
66189;SDS011;52992;52.084;5.412;2023-02-13T13:45:42;20.23;;;11.17;;
66189;SDS011;52992;52.084;5.412;2023-02-13T13:51:06;19.30;;;11.07;;
66189;SDS011;52992;52.084;5.412;2023-02-13T13:53:49;20.93;;;11.63;;
66189;SDS011;52992;52.084;5.412;2023-02-13T13:59:24;22.90;;;11.97;;
66189;SDS011;52992;52.084;5.412;2023-02-13T14:07:42;24.80;;;10.30;;
66189;SDS011;52992;52.084;5.412;2023-02-13T14:10:57;23.17;;;11.70;;
66189;SDS011;52992;52.084;5.412;2023-02-13T14:13:27;23.87;;;11.77;;
66189;SDS011;52992;52.084;5.412;2023-02-13T14:16:00;19.00;;;10.60;;
66189;SDS011;52992;52.084;5.412;2023-02-13T14:18:27;22.83;;;11.47;;
66189;SDS011;52992;52.084;5.412;2023-02-13T14:20:57;22.73;;;11.00;;
66189;SDS011;52992;52.084;5.412;2023-02-13T14:29:28;25.40;;;12.10;;
66189;SDS011;52992;52.084;5.412;2023-02-13T14:31:52;21.00;;;10.77;;
66189;SDS011;52992;52.084;5.412;2023-02-13T14:34:28;21.80;;;11.47;;
66189;SDS011;52992;52.084;5.412;2023-02-13T14:39:38;22.30;;;10.90;;
66189;SDS011;52992;52.084;5.412;2023-02-13T14:42:24;21.20;;;11.77;;
66189;SDS011;52992;52.084;5.412;2023-02-13T14:44:54;23.90;;;11.93;;
66189;SDS011;52992;52.084;5.412;2023-02-13T14:47:34;19.60;;;11.10;;
66189;SDS011;52992;52.084;5.412;2023-02-13T14:50:05;22.43;;;12.17;;
66189;SDS011;52992;52.084;5.412;2023-02-13T14:52:39;22.63;;;11.47;;
66189;SDS011;52992;52.084;5.412;2023-02-13T14:55:26;23.87;;;12.40;;
66189;SDS011;52992;52.084;5.412;2023-02-13T14:58:06;19.40;;;11.00;;
66189;SDS011;52992;52.084;5.412;2023-02-13T15:00:45;22.03;;;11.07;;
66189;SDS011;52992;52.084;5.412;2023-02-13T15:08:56;17.63;;;10.10;;
66189;SDS011;52992;52.084;5.412;2023-02-13T15:17:06;22.77;;;11.03;;
66189;SDS011;52992;52.084;5.412;2023-02-13T15:19:46;23.10;;;11.87;;
66189;SDS011;52992;52.084;5.412;2023-02-13T15:22:19;23.77;;;11.77;;
66189;SDS011;52992;52.084;5.412;2023-02-13T15:24:51;20.90;;;11.20;;
66189;SDS011;52992;52.084;5.412;2023-02-13T15:27:20;21.23;;;11.07;;
66189;SDS011;52992;52.084;5.412;2023-02-13T15:29:59;21.63;;;11.57;;
66189;SDS011;52992;52.084;5.412;2023-02-13T15:32:28;21.03;;;12.00;;
66189;SDS011;52992;52.084;5.412;2023-02-13T15:35:09;23.20;;;11.73;;
66189;SDS011;52992;52.084;5.412;2023-02-13T15:37:53;23.50;;;12.60;;
66189;SDS011;52992;52.084;5.412;2023-02-13T15:40:24;21.43;;;10.83;;
66189;SDS011;52992;52.084;5.412;2023-02-13T15:42:57;20.73;;;12.13;;
66189;SDS011;52992;52.084;5.412;2023-02-13T15:45:26;23.43;;;11.77;;
66189;SDS011;52992;52.084;5.412;2023-02-13T15:47:54;25.50;;;11.37;;
66189;SDS011;52992;52.084;5.412;2023-02-13T15:50:32;22.10;;;11.83;;
66189;SDS011;52992;52.084;5.412;2023-02-13T15:53:02;21.73;;;11.73;;
66189;SDS011;52992;52.084;5.412;2023-02-13T15:55:35;22.57;;;11.60;;
66189;SDS011;52992;52.084;5.412;2023-02-13T15:58:03;21.13;;;10.70;;
66189;SDS011;52992;52.084;5.412;2023-02-13T16:00:35;24.93;;;14.00;;
66189;SDS011;52992;52.084;5.412;2023-02-13T16:03:06;22.67;;;12.17;;
66189;SDS011;52992;52.084;5.412;2023-02-13T16:05:43;23.27;;;11.27;;
66189;SDS011;52992;52.084;5.412;2023-02-13T16:08:28;24.03;;;12.67;;
66189;SDS011;52992;52.084;5.412;2023-02-13T16:16:42;24.67;;;12.17;;
66189;SDS011;52992;52.084;5.412;2023-02-13T16:19:20;20.50;;;11.33;;
66189;SDS011;52992;52.084;5.412;2023-02-13T16:21:49;21.80;;;12.30;;
66189;SDS011;52992;52.084;5.412;2023-02-13T16:24:17;22.20;;;11.60;;
66189;SDS011;52992;52.084;5.412;2023-02-13T16:26:44;21.97;;;11.97;;
66189;SDS011;52992;52.084;5.412;2023-02-13T16:29:17;22.63;;;11.73;;
66189;SDS011;52992;52.084;5.412;2023-02-13T16:31:47;22.10;;;12.07;;
66189;SDS011;52992;52.084;5.412;2023-02-13T16:34:23;22.67;;;12.60;;
66189;SDS011;52992;52.084;5.412;2023-02-13T16:36:55;24.47;;;12.97;;
66189;SDS011;52992;52.084;5.412;2023-02-13T16:39:27;21.93;;;12.20;;
66189;SDS011;52992;52.084;5.412;2023-02-13T16:41:56;25.47;;;13.23;;
66189;SDS011;52992;52.084;5.412;2023-02-13T16:44:25;22.30;;;11.73;;
66189;SDS011;52992;52.084;5.412;2023-02-13T16:47:00;23.20;;;12.67;;
66189;SDS011;52992;52.084;5.412;2023-02-13T16:49:32;25.13;;;13.63;;
66189;SDS011;52992;52.084;5.412;2023-02-13T16:52:15;28.23;;;14.50;;
66189;SDS011;52992;52.084;5.412;2023-02-13T17:02:31;25.83;;;14.60;;
66189;SDS011;52992;52.084;5.412;2023-02-13T17:07:37;24.50;;;12.53;;
66189;SDS011;52992;52.084;5.412;2023-02-13T17:10:21;26.30;;;12.80;;
66189;SDS011;52992;52.084;5.412;2023-02-13T17:12:53;21.63;;;11.13;;
66189;SDS011;52992;52.084;5.412;2023-02-13T17:15:22;41.13;;;19.63;;
66189;SDS011;52992;52.084;5.412;2023-02-13T17:17:50;27.50;;;13.87;;
66189;SDS011;52992;52.084;5.412;2023-02-13T17:20:20;28.20;;;15.70;;
66189;SDS011;52992;52.084;5.412;2023-02-13T17:22:50;27.23;;;15.50;;
66189;SDS011;52992;52.084;5.412;2023-02-13T17:25:28;24.73;;;13.97;;
66189;SDS011;52992;52.084;5.412;2023-02-13T17:27:58;30.80;;;15.07;;
66189;SDS011;52992;52.084;5.412;2023-02-13T17:30:28;25.37;;;13.60;;
66189;SDS011;52992;52.084;5.412;2023-02-13T17:33:00;28.87;;;15.30;;
66189;SDS011;52992;52.084;5.412;2023-02-13T17:35:32;34.93;;;16.57;;
66189;SDS011;52992;52.084;5.412;2023-02-13T17:38:00;27.17;;;14.67;;
66189;SDS011;52992;52.084;5.412;2023-02-13T17:40:27;32.57;;;16.33;;
66189;SDS011;52992;52.084;5.412;2023-02-13T17:42:57;32.50;;;15.57;;
66189;SDS011;52992;52.084;5.412;2023-02-13T17:45:26;28.20;;;13.93;;